createdAt,value
2017-09-28T00:01:27.290Z,15.60
2017-09-28T00:03:55.539Z,15.60
2017-09-28T00:06:23.839Z,15.60
2017-09-28T00:08:52.103Z,15.60
2017-09-28T00:11:20.359Z,15.60
2017-09-28T00:13:48.651Z,15.50
2017-09-28T00:16:16.914Z,15.60
2017-09-28T00:18:46.024Z,15.60
2017-09-28T00:21:15.687Z,15.60
2017-09-28T00:23:44.979Z,15.70
2017-09-28T00:26:13.279Z,15.60
2017-09-28T00:28:41.534Z,15.70
2017-09-28T00:31:09.787Z,15.80
2017-09-28T00:33:38.083Z,15.70
2017-09-28T00:36:06.338Z,15.70
2017-09-28T00:38:34.595Z,15.70
2017-09-28T00:41:02.876Z,15.70
2017-09-28T00:43:31.134Z,15.70
2017-09-28T00:46:00.327Z,15.70
2017-09-28T00:48:28.573Z,15.60
2017-09-28T00:50:56.832Z,15.70
2017-09-28T00:53:25.132Z,15.60
2017-09-28T00:55:53.391Z,15.60
2017-09-28T00:58:23.060Z,15.60
2017-09-28T01:00:52.322Z,15.60
2017-09-28T01:03:20.576Z,15.60
2017-09-28T01:05:48.871Z,15.60
2017-09-28T01:08:17.132Z,15.70
2017-09-28T01:10:46.748Z,15.60
2017-09-28T01:13:16.336Z,15.50
2017-09-28T01:15:44.632Z,15.60
2017-09-28T01:18:12.887Z,15.60
2017-09-28T01:20:41.138Z,15.60
2017-09-28T01:23:09.435Z,15.60
2017-09-28T01:25:37.705Z,15.60
2017-09-28T01:28:05.966Z,15.50
2017-09-28T01:30:34.251Z,15.50
2017-09-28T01:33:02.498Z,15.50
2017-09-28T01:35:30.790Z,15.50
2017-09-28T01:37:59.046Z,15.40
2017-09-28T01:40:27.360Z,15.40
2017-09-28T01:42:55.620Z,15.40
2017-09-28T01:45:23.883Z,15.40
2017-09-28T01:47:52.179Z,15.40
2017-09-28T01:50:20.455Z,15.40
2017-09-28T01:52:48.715Z,15.50
2017-09-28T01:55:17.007Z,15.50
2017-09-28T01:57:46.130Z,15.50
2017-09-28T02:00:15.479Z,15.50
2017-09-28T02:02:42.967Z,15.50
2017-09-28T02:05:11.219Z,15.50
2017-09-28T02:07:39.522Z,15.50
2017-09-28T02:10:07.780Z,15.60
2017-09-28T02:12:36.035Z,15.50
2017-09-28T02:15:04.316Z,15.60
2017-09-28T02:17:32.602Z,15.60
2017-09-28T02:20:00.859Z,15.60
2017-09-28T02:22:29.153Z,15.60
2017-09-28T02:24:57.419Z,15.60
2017-09-28T02:27:25.674Z,15.70
2017-09-28T02:29:53.962Z,15.60
2017-09-28T02:32:21.530Z,15.60
2017-09-28T02:34:49.778Z,15.60
2017-09-28T02:37:18.035Z,15.60
2017-09-28T02:39:46.327Z,15.60
2017-09-28T02:42:14.575Z,15.60
2017-09-28T02:44:42.823Z,15.60
2017-09-28T02:47:11.110Z,15.60
2017-09-28T02:49:43.135Z,15.60
2017-09-28T02:52:11.386Z,15.60
2017-09-28T02:54:39.658Z,15.60
2017-09-28T02:57:07.962Z,15.60
2017-09-28T02:59:36.221Z,15.60
2017-09-28T03:02:04.479Z,15.70
2017-09-28T03:04:32.767Z,15.70
2017-09-28T03:07:01.050Z,15.80
2017-09-28T03:09:29.307Z,15.70
2017-09-28T03:11:57.602Z,15.70
2017-09-28T03:14:25.860Z,15.80
2017-09-28T03:16:54.123Z,15.70
2017-09-28T03:19:23.607Z,15.80
2017-09-28T03:21:52.834Z,15.70
2017-09-28T03:24:21.544Z,15.80
2017-09-28T03:26:49.821Z,15.80
2017-09-28T03:29:18.114Z,15.80
2017-09-28T03:31:46.372Z,15.80
2017-09-28T03:34:14.645Z,15.70
2017-09-28T03:36:42.926Z,15.60
2017-09-28T03:39:11.187Z,15.80
2017-09-28T03:41:39.475Z,15.70
2017-09-28T03:44:07.763Z,15.70
2017-09-28T03:46:36.018Z,15.70
2017-09-28T03:49:04.268Z,15.70
2017-09-28T03:51:32.554Z,15.70
2017-09-28T03:54:00.036Z,15.70
2017-09-28T03:56:28.290Z,15.70
2017-09-28T03:58:56.571Z,15.70
2017-09-28T04:01:24.843Z,15.70
2017-09-28T04:03:53.191Z,15.70
2017-09-28T04:06:22.570Z,15.70
2017-09-28T04:08:51.634Z,15.70
2017-09-28T04:11:19.887Z,15.70
2017-09-28T04:13:48.151Z,15.70
2017-09-28T04:16:16.423Z,15.70
2017-09-28T04:18:44.678Z,15.60
2017-09-28T04:21:12.976Z,15.60
2017-09-28T04:23:41.234Z,15.60
2017-09-28T04:26:09.482Z,15.60
2017-09-28T04:28:37.816Z,15.70
2017-09-28T04:31:06.079Z,15.70
2017-09-28T04:33:34.330Z,15.70
2017-09-28T04:36:02.614Z,15.60
2017-09-28T04:38:30.870Z,15.60
2017-09-28T04:40:59.138Z,15.70
2017-09-28T04:43:27.394Z,15.70
2017-09-28T04:45:55.667Z,15.60
2017-09-28T04:48:23.914Z,15.60
2017-09-28T04:50:52.186Z,15.60
2017-09-28T04:53:20.454Z,15.60
2017-09-28T04:55:48.743Z,15.60
2017-09-28T04:58:16.990Z,15.60
2017-09-28T05:00:46.371Z,15.70
2017-09-28T05:03:14.638Z,15.70
2017-09-28T05:05:42.902Z,15.70
2017-09-28T05:08:11.200Z,15.70
2017-09-28T05:10:39.454Z,15.70
2017-09-28T05:13:07.707Z,15.60
2017-09-28T05:15:35.988Z,15.60
2017-09-28T05:18:04.243Z,15.70
2017-09-28T05:20:32.524Z,15.70
2017-09-28T05:23:00.795Z,15.70
2017-09-28T05:25:29.045Z,15.60
2017-09-28T05:27:57.313Z,15.70
2017-09-28T05:30:25.571Z,15.70
2017-09-28T05:32:53.878Z,15.70
2017-09-28T05:35:22.126Z,15.80
2017-09-28T05:37:50.376Z,15.80
2017-09-28T05:40:18.652Z,15.80
2017-09-28T05:42:46.919Z,15.90
2017-09-28T05:45:16.267Z,15.80
2017-09-28T05:47:45.511Z,15.80
2017-09-28T05:50:13.781Z,15.70
2017-09-28T05:52:42.034Z,15.60
2017-09-28T05:55:10.321Z,15.70
2017-09-28T05:57:38.575Z,15.80
2017-09-28T06:00:06.846Z,15.70
2017-09-28T06:02:35.093Z,15.70
2017-09-28T06:05:03.382Z,15.80
2017-09-28T06:07:31.630Z,15.80
2017-09-28T06:09:59.886Z,15.80
2017-09-28T06:12:30.182Z,15.80
2017-09-28T06:14:58.430Z,15.70
2017-09-28T06:17:26.762Z,15.80
2017-09-28T06:19:55.014Z,15.80
2017-09-28T06:22:23.284Z,15.90
2017-09-28T06:24:51.607Z,15.90
2017-09-28T06:27:19.878Z,16.00
2017-09-28T06:29:48.142Z,16.00
2017-09-28T06:32:29.234Z,16.00
2017-09-28T06:34:57.514Z,16.00
2017-09-28T06:37:38.245Z,16.10
2017-09-28T06:40:06.499Z,16.10
2017-09-28T06:42:34.786Z,16.10
2017-09-28T06:45:03.076Z,16.10
2017-09-28T06:47:31.326Z,16.10
2017-09-28T06:49:59.607Z,16.10
2017-09-28T06:52:27.882Z,16.20
2017-09-28T06:54:56.190Z,16.20
2017-09-28T06:57:24.487Z,16.20
2017-09-28T06:59:53.746Z,16.30
2017-09-28T07:02:22.991Z,16.20
2017-09-28T07:04:50.477Z,16.20
2017-09-28T07:07:21.618Z,16.30
2017-09-28T07:09:49.875Z,16.30
2017-09-28T07:12:18.498Z,16.30
2017-09-28T07:14:46.775Z,16.30
2017-09-28T07:17:16.274Z,16.30
2017-09-28T07:19:44.553Z,16.30
2017-09-28T07:22:12.853Z,16.20
2017-09-28T07:24:41.131Z,16.30
2017-09-28T07:27:09.374Z,16.20
2017-09-28T07:29:37.653Z,16.20
2017-09-28T07:32:08.995Z,16.10
2017-09-28T07:34:37.274Z,16.10
2017-09-28T07:37:05.533Z,16.10
2017-09-28T07:39:33.822Z,16.00
2017-09-28T07:42:03.044Z,16.10
2017-09-28T07:44:31.295Z,16.00
2017-09-28T07:46:59.601Z,16.10
2017-09-28T07:49:27.858Z,16.10
2017-09-28T07:51:56.146Z,16.20
2017-09-28T07:54:24.461Z,16.10
2017-09-28T07:56:53.294Z,16.10
2017-09-28T07:59:22.065Z,16.10
2017-09-28T08:01:50.371Z,16.10
2017-09-28T08:04:22.080Z,16.10
2017-09-28T08:06:50.367Z,16.10
2017-09-28T08:09:18.938Z,16.20
2017-09-28T08:11:47.219Z,16.20
2017-09-28T08:14:29.594Z,16.30
2017-09-28T08:16:57.879Z,16.30
2017-09-28T08:19:27.116Z,16.30
2017-09-28T08:21:55.406Z,16.40
2017-09-28T08:24:23.670Z,16.40
2017-09-28T08:26:52.909Z,16.40
2017-09-28T08:29:21.725Z,16.50
2017-09-28T08:31:49.982Z,16.50
2017-09-28T08:34:19.661Z,16.50
2017-09-28T08:36:47.925Z,16.60
2017-09-28T08:39:23.639Z,16.70
2017-09-28T08:41:52.812Z,16.80
2017-09-28T08:44:28.498Z,16.80
2017-09-28T08:46:56.022Z,16.70
2017-09-28T08:49:24.297Z,16.70
2017-09-28T08:51:53.682Z,16.90
2017-09-28T08:54:24.294Z,16.90
2017-09-28T08:56:53.742Z,16.80
2017-09-28T08:59:22.970Z,16.90
2017-09-28T09:01:51.686Z,16.90
2017-09-28T09:04:26.582Z,16.90
2017-09-28T09:06:54.869Z,16.90
2017-09-28T09:09:23.188Z,16.90
2017-09-28T09:11:52.431Z,16.90
2017-09-28T09:14:21.727Z,17.00
2017-09-28T09:16:50.006Z,17.00
2017-09-28T09:19:19.634Z,17.00
2017-09-28T09:21:47.917Z,17.00
2017-09-28T09:24:17.539Z,17.10
2017-09-28T09:26:45.822Z,17.20
2017-09-28T09:29:15.246Z,17.20
2017-09-28T09:31:47.374Z,17.20
2017-09-28T09:34:16.183Z,17.40
2017-09-28T09:36:46.407Z,17.50
2017-09-28T09:39:15.042Z,17.60
2017-09-28T09:41:43.316Z,17.60
2017-09-28T09:44:10.854Z,17.50
2017-09-28T09:46:41.104Z,17.60
2017-09-28T09:49:09.374Z,17.60
2017-09-28T09:51:37.666Z,17.70
2017-09-28T09:54:05.947Z,17.70
2017-09-28T09:56:34.202Z,17.80
2017-09-28T09:59:02.482Z,17.90
2017-09-28T10:01:36.034Z,17.90
2017-09-28T10:04:04.290Z,17.90
2017-09-28T10:06:42.258Z,17.90
2017-09-28T10:09:28.982Z,17.90
2017-09-28T10:12:04.423Z,17.90
2017-09-28T10:14:47.529Z,17.80
2017-09-28T10:17:16.180Z,17.90
2017-09-28T10:19:45.262Z,17.90
2017-09-28T10:22:14.275Z,17.90
2017-09-28T10:24:42.535Z,18.00
2017-09-28T10:27:10.803Z,18.00
2017-09-28T10:29:39.066Z,18.10
2017-09-28T10:32:07.330Z,18.20
2017-09-28T10:34:35.591Z,18.20
2017-09-28T10:37:03.871Z,18.30
2017-09-28T10:39:32.150Z,18.30
2017-09-28T10:42:01.334Z,18.30
2017-09-28T10:44:29.597Z,18.50
2017-09-28T10:46:57.850Z,18.50
2017-09-28T10:49:26.130Z,18.50
2017-09-28T10:51:54.406Z,18.50
2017-09-28T10:54:23.793Z,18.50
2017-09-28T10:56:53.105Z,18.40
2017-09-28T10:59:21.887Z,18.40
2017-09-28T11:01:50.134Z,18.50
2017-09-28T11:04:18.426Z,18.40
2017-09-28T11:06:46.673Z,18.40
2017-09-28T11:09:15.836Z,18.50
2017-09-28T11:11:45.114Z,18.60
2017-09-28T11:14:13.383Z,18.50
2017-09-28T11:16:41.638Z,18.50
2017-09-28T11:19:09.919Z,18.50
2017-09-28T11:21:38.190Z,18.50
2017-09-28T11:24:06.442Z,18.50
2017-09-28T11:26:34.730Z,18.50
2017-09-28T11:29:02.978Z,18.50
2017-09-28T11:31:31.238Z,18.50
2017-09-28T11:33:59.543Z,18.50
2017-09-28T11:36:27.795Z,18.50
2017-09-28T11:38:56.111Z,18.60
2017-09-28T11:41:24.341Z,18.70
2017-09-28T11:43:53.730Z,18.70
2017-09-28T11:46:22.831Z,18.70
2017-09-28T11:48:51.728Z,18.70
2017-09-28T11:51:19.993Z,18.80
2017-09-28T11:53:48.255Z,18.80
2017-09-28T11:56:16.522Z,18.70
2017-09-28T11:58:44.770Z,18.80
2017-09-28T12:01:13.055Z,18.70
2017-09-28T12:03:41.311Z,18.70
2017-09-28T12:06:09.580Z,18.70
2017-09-28T12:08:37.863Z,18.80
2017-09-28T12:11:06.119Z,18.80
2017-09-28T12:13:35.407Z,18.80
2017-09-28T12:16:03.684Z,18.80
2017-09-28T12:18:31.943Z,18.80
2017-09-28T12:21:00.218Z,18.90
2017-09-28T12:23:28.475Z,18.90
2017-09-28T12:25:56.750Z,19.00
2017-09-28T12:28:25.002Z,19.00
2017-09-28T12:30:53.278Z,19.00
2017-09-28T12:33:22.653Z,19.10
2017-09-28T12:35:50.938Z,19.10
2017-09-28T12:38:19.191Z,19.10
2017-09-28T12:40:47.458Z,19.10
2017-09-28T12:43:21.793Z,19.10
2017-09-28T12:45:50.083Z,19.10
2017-09-28T12:48:17.575Z,19.10
2017-09-28T12:50:45.831Z,19.10
2017-09-28T12:53:15.151Z,19.10
2017-09-28T12:55:43.389Z,19.20
2017-09-28T12:58:11.674Z,19.20
2017-09-28T13:00:39.923Z,19.40
2017-09-28T13:03:08.216Z,19.30
2017-09-28T13:05:36.475Z,19.40
2017-09-28T13:08:04.731Z,19.40
2017-09-28T13:10:32.996Z,19.50
2017-09-28T13:13:01.247Z,19.50
2017-09-28T13:15:28.777Z,19.50
2017-09-28T13:17:57.041Z,19.50
2017-09-28T13:20:25.294Z,19.40
2017-09-28T13:22:53.565Z,19.40
2017-09-28T13:25:23.240Z,19.40
2017-09-28T13:27:52.574Z,19.50
2017-09-28T13:30:20.821Z,19.50
2017-09-28T13:32:49.070Z,19.50
2017-09-28T13:35:17.342Z,19.50
2017-09-28T13:37:51.752Z,19.60
2017-09-28T13:40:20.022Z,19.70
2017-09-28T13:42:48.290Z,19.90
2017-09-28T13:45:16.540Z,20.00
2017-09-28T13:47:44.809Z,20.00
2017-09-28T13:50:13.066Z,20.10
2017-09-28T13:52:41.361Z,20.20
2017-09-28T13:55:08.844Z,20.20
2017-09-28T13:57:37.103Z,20.20
2017-09-28T14:00:05.371Z,20.30
2017-09-28T14:02:33.621Z,20.40
2017-09-28T14:05:01.883Z,20.40
2017-09-28T14:07:30.154Z,20.40
2017-09-28T14:09:58.402Z,20.40
2017-09-28T14:12:26.689Z,20.40
2017-09-28T14:14:54.942Z,20.30
2017-09-28T14:17:24.214Z,20.30
2017-09-28T14:19:53.186Z,20.20
2017-09-28T14:22:24.775Z,20.20
2017-09-28T14:24:54.323Z,20.20
2017-09-28T14:27:23.792Z,20.20
2017-09-28T14:29:52.900Z,20.20
2017-09-28T14:32:23.055Z,20.30
2017-09-28T14:34:51.845Z,20.40
2017-09-28T14:37:20.115Z,20.60
2017-09-28T14:39:48.373Z,20.70
2017-09-28T14:42:16.656Z,20.80
2017-09-28T14:44:45.998Z,20.90
2017-09-28T14:47:15.874Z,20.90
2017-09-28T14:49:45.349Z,20.90
2017-09-28T14:52:13.643Z,21.00
2017-09-28T14:54:41.894Z,21.00
2017-09-28T14:57:10.170Z,20.90
2017-09-28T14:59:38.422Z,20.80
2017-09-28T15:02:06.690Z,20.80
2017-09-28T15:04:34.937Z,20.80
2017-09-28T15:07:02.450Z,20.80
2017-09-28T15:09:30.715Z,20.80
2017-09-28T15:11:59.003Z,20.80
2017-09-28T15:14:27.271Z,20.80
2017-09-28T15:16:55.518Z,20.70
2017-09-28T15:19:23.815Z,20.60
2017-09-28T15:21:52.913Z,20.60
2017-09-28T15:24:21.747Z,20.60
2017-09-28T15:26:49.251Z,20.60
2017-09-28T15:29:17.498Z,20.60
2017-09-28T15:31:45.763Z,20.60
2017-09-28T15:34:15.186Z,20.60
2017-09-28T15:36:44.261Z,20.60
2017-09-28T15:39:12.515Z,20.50
2017-09-28T15:41:40.799Z,20.40
2017-09-28T15:44:09.084Z,20.40
2017-09-28T15:46:37.342Z,20.30
2017-09-28T15:49:05.642Z,20.30
2017-09-28T15:51:33.906Z,20.20
2017-09-28T15:54:02.195Z,20.30
2017-09-28T15:56:30.446Z,20.20
2017-09-28T15:58:58.702Z,20.20
2017-09-28T16:01:26.969Z,20.10
2017-09-28T16:03:55.222Z,20.10
2017-09-28T16:06:23.495Z,20.00
2017-09-28T16:08:51.799Z,20.00
2017-09-28T16:11:20.062Z,20.00
2017-09-28T16:13:48.306Z,20.00
2017-09-28T16:16:16.922Z,20.00
2017-09-28T16:18:46.180Z,20.00
2017-09-28T16:21:15.454Z,19.90
2017-09-28T16:23:43.724Z,19.90
2017-09-28T16:26:11.980Z,19.80
2017-09-28T16:28:40.270Z,19.80
2017-09-28T16:31:08.526Z,19.80
2017-09-28T16:33:36.799Z,19.80
2017-09-28T16:36:05.075Z,19.80
2017-09-28T16:38:33.314Z,19.80
2017-09-28T16:41:01.597Z,19.70
2017-09-28T16:43:29.850Z,19.80
2017-09-28T16:45:58.119Z,19.70
2017-09-28T16:48:26.374Z,19.70
2017-09-28T16:50:54.646Z,19.60
2017-09-28T16:53:23.970Z,19.60
2017-09-28T16:55:51.902Z,19.60
2017-09-28T16:58:20.154Z,19.60
2017-09-28T17:00:48.454Z,19.50
2017-09-28T17:03:16.051Z,19.50
2017-09-28T17:05:45.555Z,19.50
2017-09-28T17:08:14.102Z,19.50
2017-09-28T17:10:42.362Z,19.50
2017-09-28T17:13:10.642Z,19.50
2017-09-28T17:15:38.894Z,19.40
2017-09-28T17:18:07.175Z,19.40
2017-09-28T17:20:35.422Z,19.40
2017-09-28T17:23:03.702Z,19.30
2017-09-28T17:25:31.187Z,19.30
2017-09-28T17:27:59.462Z,19.50
2017-09-28T17:30:27.746Z,19.50
2017-09-28T17:32:55.999Z,19.60
2017-09-28T17:35:24.582Z,19.80
2017-09-28T17:37:53.637Z,19.60
2017-09-28T17:40:22.914Z,19.50
2017-09-28T17:42:51.885Z,19.50
2017-09-28T17:45:20.173Z,19.40
2017-09-28T17:47:48.450Z,19.30
2017-09-28T17:50:16.814Z,19.20
2017-09-28T17:52:45.767Z,19.10
2017-09-28T17:55:15.902Z,19.10
2017-09-28T17:57:44.516Z,19.10
2017-09-28T18:00:12.831Z,19.00
2017-09-28T18:02:41.092Z,19.00
2017-09-28T18:05:09.347Z,19.00
2017-09-28T18:07:37.632Z,18.90
2017-09-28T18:10:05.923Z,18.90
2017-09-28T18:12:34.202Z,19.00
2017-09-28T18:15:02.458Z,19.00
2017-09-28T18:17:29.982Z,18.90
2017-09-28T18:19:58.230Z,18.90
2017-09-28T18:22:26.511Z,18.90
2017-09-28T18:24:54.808Z,18.90
2017-09-28T18:27:24.070Z,18.80
2017-09-28T18:29:52.787Z,18.80
2017-09-28T18:32:21.047Z,18.90
2017-09-28T18:34:49.306Z,18.90
2017-09-28T18:37:17.587Z,18.90
2017-09-28T18:39:45.842Z,19.00
2017-09-28T18:42:15.015Z,19.00
2017-09-28T18:44:42.506Z,19.00
2017-09-28T18:47:10.854Z,18.90
2017-09-28T18:49:39.122Z,18.90
2017-09-28T18:55:01.343Z,18.80
2017-09-28T18:57:29.594Z,18.80
2017-09-28T18:59:58.811Z,18.90
2017-09-28T19:02:27.450Z,18.90
2017-09-28T19:04:55.730Z,18.80
2017-09-28T19:07:24.012Z,18.90
2017-09-28T19:09:52.262Z,18.90
2017-09-28T19:12:23.599Z,18.90
2017-09-28T19:14:51.943Z,18.90
2017-09-28T19:17:20.227Z,18.80
2017-09-28T19:19:48.485Z,18.90
2017-09-28T19:22:16.810Z,18.80
2017-09-28T19:24:45.112Z,18.80
2017-09-28T19:27:13.385Z,18.80
2017-09-28T19:29:41.663Z,18.80
2017-09-28T19:32:09.910Z,18.80
2017-09-28T19:34:38.186Z,18.70
2017-09-28T19:37:06.438Z,18.70
2017-09-28T19:39:34.760Z,18.70
2017-09-28T19:42:03.081Z,18.80
2017-09-28T19:44:31.326Z,18.80
2017-09-28T19:46:59.611Z,18.90
2017-09-28T19:49:28.683Z,18.80
2017-09-28T19:51:57.720Z,18.80
2017-09-28T19:54:26.669Z,18.70
2017-09-28T19:56:55.001Z,18.60
2017-09-28T19:59:23.934Z,18.60
2017-09-28T20:01:52.998Z,18.60
2017-09-28T20:04:22.051Z,18.50
2017-09-28T20:06:50.391Z,18.60
2017-09-28T20:09:18.637Z,18.50
2017-09-28T20:11:46.903Z,18.50
2017-09-28T20:14:15.154Z,18.50
2017-09-28T20:16:43.462Z,18.50
2017-09-28T20:19:11.714Z,18.40
2017-09-28T20:21:40.022Z,18.40
2017-09-28T20:24:08.268Z,18.40
2017-09-28T20:26:36.514Z,18.40
2017-09-28T20:29:04.862Z,18.40
2017-09-28T20:31:33.119Z,18.30
2017-09-28T20:34:01.499Z,18.30
2017-09-28T20:36:29.762Z,18.30
2017-09-28T20:38:59.753Z,18.20
2017-09-28T20:41:29.056Z,18.20
2017-09-28T20:43:57.899Z,18.20
2017-09-28T20:46:26.884Z,18.20
2017-09-28T20:48:55.230Z,18.20
2017-09-28T20:51:23.816Z,18.20
2017-09-28T20:53:53.023Z,18.20
2017-09-28T20:56:21.985Z,18.20
2017-09-28T20:58:50.270Z,18.20
2017-09-28T21:01:18.578Z,18.10
2017-09-28T21:03:46.851Z,18.10
2017-09-28T21:06:15.171Z,18.20
2017-09-28T21:08:43.450Z,18.20
2017-09-28T21:11:11.722Z,18.10
2017-09-28T21:13:39.974Z,18.20
2017-09-28T21:16:10.307Z,18.20
2017-09-28T21:18:38.550Z,18.20
2017-09-28T21:21:06.883Z,18.10
2017-09-28T21:23:35.138Z,18.20
2017-09-28T21:26:03.447Z,18.10
2017-09-28T21:28:30.942Z,18.10
2017-09-28T21:31:05.786Z,18.10
2017-09-28T21:33:34.050Z,18.10
2017-09-28T21:36:02.347Z,18.10
2017-09-28T21:38:30.619Z,18.00
2017-09-28T21:41:04.890Z,18.10
2017-09-28T21:43:33.163Z,18.00
2017-09-28T21:46:11.018Z,18.00
2017-09-28T21:48:39.306Z,18.00
2017-09-28T21:51:07.667Z,18.00
2017-09-28T21:53:35.923Z,18.00
2017-09-28T21:56:04.283Z,18.00
2017-09-28T21:58:32.548Z,18.00
2017-09-28T22:01:00.930Z,18.00
2017-09-28T22:03:28.421Z,18.00
2017-09-28T22:05:57.611Z,18.00
2017-09-28T22:08:25.935Z,18.00
2017-09-28T22:10:54.182Z,18.10
2017-09-28T22:13:22.431Z,18.10
2017-09-28T22:15:50.718Z,18.10
2017-09-28T22:18:19.000Z,18.00
2017-09-28T22:20:47.317Z,18.00
2017-09-28T22:23:15.582Z,17.90
2017-09-28T22:25:43.919Z,17.90
2017-09-28T22:28:12.211Z,17.90
2017-09-28T22:30:40.467Z,18.00
2017-09-28T22:33:08.747Z,18.00
2017-09-28T22:35:38.031Z,18.00
2017-09-28T22:38:06.322Z,17.90
2017-09-28T22:40:34.576Z,17.90
2017-09-28T22:43:02.878Z,17.90
2017-09-28T22:45:31.214Z,17.90
2017-09-28T22:47:59.466Z,17.90
2017-09-28T22:50:28.343Z,17.90
2017-09-28T22:52:57.723Z,17.90
2017-09-28T22:55:27.714Z,17.90
2017-09-28T22:57:56.646Z,17.90
2017-09-28T23:00:24.994Z,17.90
2017-09-28T23:02:54.530Z,17.90
2017-09-28T23:05:24.063Z,17.90
2017-09-28T23:07:53.150Z,17.80
2017-09-28T23:10:21.928Z,17.80
2017-09-28T23:12:50.202Z,17.80
2017-09-28T23:15:18.478Z,17.80
2017-09-28T23:17:46.753Z,17.80
2017-09-28T23:20:15.054Z,17.90
2017-09-28T23:22:43.335Z,17.80
2017-09-28T23:25:11.658Z,17.80
2017-09-28T23:27:39.988Z,17.80
2017-09-28T23:30:08.270Z,17.80
2017-09-28T23:32:36.574Z,17.80
2017-09-28T23:35:04.870Z,17.80
2017-09-28T23:37:33.118Z,17.80
2017-09-28T23:40:04.795Z,17.80
2017-09-28T23:42:33.054Z,17.80
2017-09-28T23:45:01.343Z,17.90
2017-09-28T23:47:29.603Z,17.90
2017-09-28T23:49:58.174Z,17.90
2017-09-28T23:52:27.448Z,17.90
2017-09-28T23:54:55.804Z,17.90
2017-09-28T23:57:24.071Z,17.90
2017-09-28T23:59:56.906Z,17.90
